Brooks, Kentucky
Current Conditions -  °F | °C
As of 4:56 AM on Saturday 22 Nov 2014 (Local Time) from KSDF Reporting Station
Light Rain Light Rain  
Wind Chill:   Ceiling: 7000
Heat Index:   Visibility: 10mi
Dew Point: -4°   Wind: 7mph
Humidity: 57%   Direction: 130°SE
Pressure: 30.3"   Gusts: NA
Location:  38.06°N, 85.71°W
Report Text: KSDF 220956Z 13006KT 10SM -RA FEW050 BKN070 OVC080 04/M04 A3030 RMK AO2 RAB18 SLP265 PCPN VRY LGT P0000 T00391039
Loading
Personal Weather Stations






























Interactive Weather Map New forecast layout! Learn more

10-Day Weather Forecast

Advertisements
Track Severe Weather on mobile